CSL Niagara — VCGJ — position and weather

sailwx.info

Track history (hours):
 
Tides and Currents Weather Stations Pressure Air Temp Water Temp Dewpoint Dewpoint Depression Visibility Wind Speed Wind Dir Waves Ship Positions

CSL Niagara

ex J. W. McGiffin

Last reported at 2017-Nov-18 11:30 UTC. Time now 2017-Nov-18 11:50 UTC.
Position N 46°44' W 091°60'.

Length 225 m; draft 6.9 m.

Type: Cargo ship. MMSI: 316029000.

Date/timePositionNaut miles runAvg speedWind from/ knotsBaromVisibWave heightAir tempDewpointWater temp
2017-Nov-18 11:30N 46°44' W 091°60'0 0.1
2017-Nov-18 11:00N 46°44' W 091°60'161057.5
2017-Nov-18 11:00N 46°42' W 091°36'1634.0 240 / 13987.010.8 1.0
2017-Nov-18 10:30N 46°44' W 091°60'0 0.0
2017-Nov-18 10:00N 46°44' W 091°60'0 0.0
2017-Nov-18 09:30N 46°44' W 091°60'0 0.1
2017-Nov-18 09:00N 46°44' W 091°60'0 0.0
2017-Nov-18 08:30N 46°44' W 091°60'0 0.1
2017-Nov-18 08:00N 46°44' W 091°60'211354.6
2017-Nov-18 08:00N 46°30' W 091°36'2244.4 350 / 12
2017-Nov-18 07:30N 46°44' W 092°00'0 0.2
2017-Nov-18 07:00N 46°44' W 091°60'0 0.1
2017-Nov-18 06:30N 46°44' W 091°60'0 0.3
2017-Nov-18 06:00N 46°44' W 091°60'0 0.1
2017-Nov-18 05:30N 46°44' W 091°60'0 0.1
2017-Nov-18 05:01N 46°44' W 091°60'0 0.2
2017-Nov-18 04:30N 46°44' W 091°60'0 0.1
2017-Nov-18 04:01N 46°44' W 091°60'0 0.0
2017-Nov-18 03:30N 46°44' W 091°60'0 0.0
2017-Nov-18 03:00N 46°44' W 092°00'0 0.1
2017-Nov-18 02:30N 46°44' W 091°60'0 0.4
2017-Nov-18 02:00N 46°44' W 091°60'0 0.1
2017-Nov-18 01:30N 46°44' W 091°60'0 0.0
2017-Nov-18 01:00N 46°44' W 091°60'0 0.1
2017-Nov-18 00:30N 46°44' W 091°60'0 0.1
2017-Nov-18 00:00N 46°44' W 091°60'0 0.0
2017-Nov-17 23:30N 46°44' W 091°60'0 0.2
2017-Nov-17 23:00N 46°44' W 091°60'5 9.7
2017-Nov-17 22:29N 46°46' W 091°53'612.0
2017-Nov-17 22:00N 46°48' W 091°45'611.9
2017-Nov-17 21:30N 46°51' W 091°37'611.0
2017-Nov-17 21:00N 46°48' W 091°30'7224.2 230 / 10984.0 2.2 2.0
2017-Nov-17 18:00N 47°48' W 090°30'5914.8 1.1
2017-Nov-17 14:00N 46°54' W 089°54'265 9.2 090 / 25986.0 2.0
2017-Nov-16 09:06N 45°45' W 083°43'111.0
2017-Nov-16 09:00N 45°44' W 083°42'510.9
2017-Nov-16 08:30N 45°40' W 083°38'510.8
2017-Nov-16 08:00N 45°36' W 083°33'510.8
2017-Nov-16 07:30N 45°31' W 083°29'510.9
2017-Nov-16 07:00N 45°26' W 083°25'  
2017-Nov-11 03:08N 46°52' W 091°39'211.4
2017-Nov-11 02:59N 46°52' W 091°41'611.5
2017-Nov-11 02:30N 46°48' W 091°47'611.3
2017-Nov-11 02:00N 46°45' W 091°54'510.1
2017-Nov-11 01:30N 46°43' W 092°01'1 1.5
2017-Nov-11 00:59N 46°42' W 092°01'0 0.0
2017-Nov-11 00:14N 46°42' W 092°01'0 0.0
2017-Nov-10 23:59N 46°42' W 092°01'0 0.0
2017-Nov-10 23:29N 46°42' W 092°01'0 0.0
2017-Nov-10 22:59N 46°42' W 092°01'0 0.0
2017-Nov-10 22:29N 46°42' W 092°01'0 0.0
2017-Nov-10 21:50N 46°42' W 092°01'0 0.0
2017-Nov-10 21:29N 46°42' W 092°01'0 0.0
2017-Nov-10 20:50N 46°42' W 092°01'0 0.0
2017-Nov-10 20:23N 46°42' W 092°01'0 0.0
2017-Nov-10 19:50N 46°42' W 092°01'0 0.0
2017-Nov-10 19:23N 46°42' W 092°01'0 0.0
2017-Nov-10 18:53N 46°42' W 092°01'0 0.0
2017-Nov-10 18:23N 46°42' W 092°01'0 0.0
2017-Nov-10 17:53N 46°42' W 092°01'0 0.0
2017-Nov-10 17:26N 46°42' W 092°01'0 0.0
2017-Nov-10 16:56N 46°42' W 092°01'0 0.0
2017-Nov-10 16:30N 46°42' W 092°01'0 0.0
2017-Nov-10 16:00N 46°42' W 092°01'0 0.0
2017-Nov-10 15:30N 46°42' W 092°01'0 0.0
2017-Nov-10 15:00N 46°42' W 092°01'0 0.0
2017-Nov-10 14:29N 46°42' W 092°01'0 0.0
2017-Nov-10 14:00N 46°42' W 092°01'0 0.0
2017-Nov-10 13:30N 46°42' W 092°01'0 0.0
2017-Nov-10 13:00N 46°42' W 092°01'0 0.0
2017-Nov-10 12:30N 46°42' W 092°01'0 0.0
2017-Nov-10 12:00N 46°42' W 092°01'0 0.0
2017-Nov-10 11:30N 46°42' W 092°01'0 0.0
2017-Nov-10 11:00N 46°42' W 092°01'0 0.5
2017-Nov-10 10:30N 46°42' W 092°01'2 3.8
2017-Nov-10 10:00N 46°43' W 091°59'611.7
2017-Nov-10 09:30N 46°47' W 091°52'612.2
2017-Nov-10 09:00N 46°52' W 091°46'612.2
2017-Nov-10 08:30N 46°56' W 091°40'  
Track history (hours):
 
Tides and Currents Weather Stations Pressure Air Temp Water Temp Dewpoint Dewpoint Depression Visibility Wind Speed Wind Dir Waves Ship Positions

CSL Niagara

ex J. W. McGiffin

Last reported at 2017-Nov-18 11:30 UTC. Time now 2017-Nov-18 11:50 UTC.
Position N 46°44' W 091°60'.

Length 225 m; draft 6.9 m.

Type: Cargo ship. MMSI: 316029000.

Date/timePositionNaut miles runAvg speedWind from/ knotsBaromVisibWave heightAir tempDewpointWater temp
2017-Nov-18 11:30N 46°44' W 091°60'0 0.1
2017-Nov-18 11:00N 46°44' W 091°60'161057.5
2017-Nov-18 11:00N 46°42' W 091°36'1634.0 240 / 13987.010.8 1.0
2017-Nov-18 10:30N 46°44' W 091°60'0 0.0
2017-Nov-18 10:00N 46°44' W 091°60'0 0.0
2017-Nov-18 09:30N 46°44' W 091°60'0 0.1
2017-Nov-18 09:00N 46°44' W 091°60'0 0.0
2017-Nov-18 08:30N 46°44' W 091°60'0 0.1
2017-Nov-18 08:00N 46°44' W 091°60'211354.6
2017-Nov-18 08:00N 46°30' W 091°36'2244.4 350 / 12
2017-Nov-18 07:30N 46°44' W 092°00'0 0.2
2017-Nov-18 07:00N 46°44' W 091°60'0 0.1
2017-Nov-18 06:30N 46°44' W 091°60'0 0.3
2017-Nov-18 06:00N 46°44' W 091°60'0 0.1
2017-Nov-18 05:30N 46°44' W 091°60'0 0.1
2017-Nov-18 05:01N 46°44' W 091°60'0 0.2
2017-Nov-18 04:30N 46°44' W 091°60'0 0.1
2017-Nov-18 04:01N 46°44' W 091°60'0 0.0
2017-Nov-18 03:30N 46°44' W 091°60'0 0.0
2017-Nov-18 03:00N 46°44' W 092°00'0 0.1
2017-Nov-18 02:30N 46°44' W 091°60'0 0.4
2017-Nov-18 02:00N 46°44' W 091°60'0 0.1
2017-Nov-18 01:30N 46°44' W 091°60'0 0.0
2017-Nov-18 01:00N 46°44' W 091°60'0 0.1
2017-Nov-18 00:30N 46°44' W 091°60'0 0.1
2017-Nov-18 00:00N 46°44' W 091°60'0 0.0
2017-Nov-17 23:30N 46°44' W 091°60'0 0.2
2017-Nov-17 23:00N 46°44' W 091°60'5 9.7
2017-Nov-17 22:29N 46°46' W 091°53'612.0
2017-Nov-17 22:00N 46°48' W 091°45'611.9
2017-Nov-17 21:30N 46°51' W 091°37'611.0
2017-Nov-17 21:00N 46°48' W 091°30'7224.2 230 / 10984.0 2.2 2.0
2017-Nov-17 18:00N 47°48' W 090°30'5914.8 1.1
2017-Nov-17 14:00N 46°54' W 089°54'265 9.2 090 / 25986.0 2.0
2017-Nov-16 09:06N 45°45' W 083°43'111.0
2017-Nov-16 09:00N 45°44' W 083°42'510.9
2017-Nov-16 08:30N 45°40' W 083°38'510.8
2017-Nov-16 08:00N 45°36' W 083°33'510.8
2017-Nov-16 07:30N 45°31' W 083°29'510.9
2017-Nov-16 07:00N 45°26' W 083°25'  
2017-Nov-11 03:08N 46°52' W 091°39'211.4
2017-Nov-11 02:59N 46°52' W 091°41'611.5
2017-Nov-11 02:30N 46°48' W 091°47'611.3
2017-Nov-11 02:00N 46°45' W 091°54'510.1
2017-Nov-11 01:30N 46°43' W 092°01'1 1.5
2017-Nov-11 00:59N 46°42' W 092°01'0 0.0
2017-Nov-11 00:14N 46°42' W 092°01'0 0.0
2017-Nov-10 23:59N 46°42' W 092°01'0 0.0
2017-Nov-10 23:29N 46°42' W 092°01'0 0.0
2017-Nov-10 22:59N 46°42' W 092°01'0 0.0
2017-Nov-10 22:29N 46°42' W 092°01'0 0.0
2017-Nov-10 21:50N 46°42' W 092°01'0 0.0
2017-Nov-10 21:29N 46°42' W 092°01'0 0.0
2017-Nov-10 20:50N 46°42' W 092°01'0 0.0
2017-Nov-10 20:23N 46°42' W 092°01'0 0.0
2017-Nov-10 19:50N 46°42' W 092°01'0 0.0
2017-Nov-10 19:23N 46°42' W 092°01'0 0.0
2017-Nov-10 18:53N 46°42' W 092°01'0 0.0
2017-Nov-10 18:23N 46°42' W 092°01'0 0.0
2017-Nov-10 17:53N 46°42' W 092°01'0 0.0
2017-Nov-10 17:26N 46°42' W 092°01'0 0.0
2017-Nov-10 16:56N 46°42' W 092°01'0 0.0
2017-Nov-10 16:30N 46°42' W 092°01'0 0.0
2017-Nov-10 16:00N 46°42' W 092°01'0 0.0
2017-Nov-10 15:30N 46°42' W 092°01'0 0.0
2017-Nov-10 15:00N 46°42' W 092°01'0 0.0
2017-Nov-10 14:29N 46°42' W 092°01'0 0.0
2017-Nov-10 14:00N 46°42' W 092°01'0 0.0
2017-Nov-10 13:30N 46°42' W 092°01'0 0.0
2017-Nov-10 13:00N 46°42' W 092°01'0 0.0
2017-Nov-10 12:30N 46°42' W 092°01'0 0.0
2017-Nov-10 12:00N 46°42' W 092°01'0 0.0
2017-Nov-10 11:30N 46°42' W 092°01'0 0.0
2017-Nov-10 11:00N 46°42' W 092°01'0 0.5
2017-Nov-10 10:30N 46°42' W 092°01'2 3.8
2017-Nov-10 10:00N 46°43' W 091°59'611.7
2017-Nov-10 09:30N 46°47' W 091°52'612.2
2017-Nov-10 09:00N 46°52' W 091°46'612.2
2017-Nov-10 08:30N 46°56' W 091°40'  

Dump ship's entire track history